sensor_id;sensor_type;location;lat;lon;timestamp;pressure;altitude;pressure_sealevel;temperature;humidity
51781;BME280;37844;57.126;24.288;2023-04-24T00:02:14;100601.03;;;13.38;73.51
51781;BME280;37844;57.126;24.288;2023-04-24T00:04:59;100596.72;;;13.33;73.60
51781;BME280;37844;57.126;24.288;2023-04-24T00:07:46;100589.78;;;13.25;74.63
51781;BME280;37844;57.126;24.288;2023-04-24T00:10:30;100588.94;;;13.15;74.68
51781;BME280;37844;57.126;24.288;2023-04-24T00:13:14;100590.66;;;13.19;75.13
51781;BME280;37844;57.126;24.288;2023-04-24T00:15:58;100583.75;;;13.15;75.10
51781;BME280;37844;57.126;24.288;2023-04-24T00:18:42;100581.16;;;13.12;75.58
51781;BME280;37844;57.126;24.288;2023-04-24T00:21:26;100581.16;;;13.18;74.80
51781;BME280;37844;57.126;24.288;2023-04-24T00:24:10;100583.75;;;13.13;75.10
51781;BME280;37844;57.126;24.288;2023-04-24T00:26:54;100577.72;;;13.01;75.92
51781;BME280;37844;57.126;24.288;2023-04-24T00:29:38;100575.13;;;13.04;75.80
51781;BME280;37844;57.126;24.288;2023-04-24T00:32:23;100575.13;;;13.02;76.21
51781;BME280;37844;57.126;24.288;2023-04-24T00:35:06;100569.97;;;12.96;76.76
51781;BME280;37844;57.126;24.288;2023-04-24T00:37:50;100567.38;;;12.84;77.10
51781;BME280;37844;57.126;24.288;2023-04-24T00:40:34;100562.19;;;12.91;77.33
51781;BME280;37844;57.126;24.288;2023-04-24T00:43:18;100563.91;;;12.80;77.26
51781;BME280;37844;57.126;24.288;2023-04-24T00:46:02;100563.06;;;12.87;77.73
51781;BME280;37844;57.126;24.288;2023-04-24T00:48:47;100557.88;;;12.84;78.04
51781;BME280;37844;57.126;24.288;2023-04-24T00:51:31;100558.75;;;12.69;78.36
51781;BME280;37844;57.126;24.288;2023-04-24T00:54:16;100564.75;;;12.76;78.63
51781;BME280;37844;57.126;24.288;2023-04-24T00:57:02;100567.34;;;12.78;79.01
51781;BME280;37844;57.126;24.288;2023-04-24T00:59:46;100558.72;;;12.72;78.67
51781;BME280;37844;57.126;24.288;2023-04-24T01:02:30;100557.84;;;12.66;79.31
51781;BME280;37844;57.126;24.288;2023-04-24T01:05:14;100563.00;;;12.52;79.89
51781;BME280;37844;57.126;24.288;2023-04-24T01:07:59;100555.25;;;12.55;80.50
51781;BME280;37844;57.126;24.288;2023-04-24T01:10:43;100563.88;;;12.62;80.19
51781;BME280;37844;57.126;24.288;2023-04-24T01:13:27;100548.38;;;12.66;79.88
51781;BME280;37844;57.126;24.288;2023-04-24T01:16:11;100549.22;;;12.64;79.92
51781;BME280;37844;57.126;24.288;2023-04-24T01:18:55;100556.13;;;12.54;80.28
51781;BME280;37844;57.126;24.288;2023-04-24T01:21:39;100555.25;;;12.46;80.39
51781;BME280;37844;57.126;24.288;2023-04-24T01:24:25;100552.69;;;12.63;79.92
51781;BME280;37844;57.126;24.288;2023-04-24T01:27:10;100542.34;;;12.50;80.86
51781;BME280;37844;57.126;24.288;2023-04-24T01:29:54;100541.44;;;12.35;81.22
51781;BME280;37844;57.126;24.288;2023-04-24T01:32:38;100540.56;;;12.36;81.61
51781;BME280;37844;57.126;24.288;2023-04-24T01:35:23;100538.81;;;12.28;81.91
51781;BME280;37844;57.126;24.288;2023-04-24T01:38:07;100532.78;;;12.23;82.92
51781;BME280;37844;57.126;24.288;2023-04-24T01:40:51;100537.09;;;12.24;82.88
51781;BME280;37844;57.126;24.288;2023-04-24T01:43:35;100536.22;;;12.18;83.78
51781;BME280;37844;57.126;24.288;2023-04-24T01:46:19;100532.78;;;12.17;83.39
51781;BME280;37844;57.126;24.288;2023-04-24T01:49:03;100526.75;;;12.15;83.68
51781;BME280;37844;57.126;24.288;2023-04-24T01:51:47;100522.38;;;12.02;84.03
51781;BME280;37844;57.126;24.288;2023-04-24T01:54:31;100533.59;;;12.08;84.31
51781;BME280;37844;57.126;24.288;2023-04-24T01:57:16;100537.91;;;12.03;84.29
51781;BME280;37844;57.126;24.288;2023-04-24T02:00:00;100519.84;;;12.11;84.18
51781;BME280;37844;57.126;24.288;2023-04-24T02:02:44;100526.69;;;11.98;84.67
51781;BME280;37844;57.126;24.288;2023-04-24T02:05:28;100521.50;;;11.89;85.43
51781;BME280;37844;57.126;24.288;2023-04-24T02:08:12;100518.94;;;11.97;85.16
51781;BME280;37844;57.126;24.288;2023-04-24T02:10:55;100520.63;;;11.95;85.11
51781;BME280;37844;57.126;24.288;2023-04-24T02:13:39;100520.63;;;11.92;85.05
51781;BME280;37844;57.126;24.288;2023-04-24T02:16:23;100508.56;;;11.95;85.16
51781;BME280;37844;57.126;24.288;2023-04-24T02:19:07;100516.25;;;11.86;85.12
51781;BME280;37844;57.126;24.288;2023-04-24T02:21:51;100514.53;;;11.80;86.34
51781;BME280;37844;57.126;24.288;2023-04-24T02:24:35;100512.00;;;11.90;85.95
51781;BME280;37844;57.126;24.288;2023-04-24T02:27:20;100509.34;;;11.79;86.24
51781;BME280;37844;57.126;24.288;2023-04-24T02:30:04;100524.81;;;11.74;86.56
51781;BME280;37844;57.126;24.288;2023-04-24T02:32:48;100516.22;;;11.75;86.44
51781;BME280;37844;57.126;24.288;2023-04-24T02:35:32;100508.56;;;11.87;86.62
51781;BME280;37844;57.126;24.288;2023-04-24T02:38:16;100509.31;;;11.74;86.31
51781;BME280;37844;57.126;24.288;2023-04-24T02:41:00;100514.47;;;11.68;87.47
51781;BME280;37844;57.126;24.288;2023-04-24T02:43:45;100508.47;;;11.71;87.52
51781;BME280;37844;57.126;24.288;2023-04-24T02:46:29;100504.09;;;11.65;87.74
51781;BME280;37844;57.126;24.288;2023-04-24T02:49:13;100505.84;;;11.63;87.80
51781;BME280;37844;57.126;24.288;2023-04-24T02:51:57;100507.56;;;11.64;88.10
51781;BME280;37844;57.126;24.288;2023-04-24T02:54:41;100507.53;;;11.62;87.54
51781;BME280;37844;57.126;24.288;2023-04-24T02:57:25;100512.78;;;11.73;87.64
51781;BME280;37844;57.126;24.288;2023-04-24T03:00:09;100510.22;;;11.75;87.12
51781;BME280;37844;57.126;24.288;2023-04-24T03:02:54;100511.84;;;11.59;88.05
51781;BME280;37844;57.126;24.288;2023-04-24T03:05:38;100500.63;;;11.55;88.17
51781;BME280;37844;57.126;24.288;2023-04-24T03:08:22;100507.53;;;11.62;87.75
51781;BME280;37844;57.126;24.288;2023-04-24T03:11:07;100510.09;;;11.58;88.37
51781;BME280;37844;57.126;24.288;2023-04-24T03:13:51;100508.44;;;11.67;87.82
51781;BME280;37844;57.126;24.288;2023-04-24T03:16:35;100528.19;;;11.62;88.10
51781;BME280;37844;57.126;24.288;2023-04-24T03:19:19;100516.19;;;11.71;88.14
51781;BME280;37844;57.126;24.288;2023-04-24T03:22:02;100511.88;;;11.66;87.88
51781;BME280;37844;57.126;24.288;2023-04-24T03:24:46;100506.72;;;11.66;87.67
51781;BME280;37844;57.126;24.288;2023-04-24T03:27:30;100509.34;;;11.76;87.41
51781;BME280;37844;57.126;24.288;2023-04-24T03:30:15;100509.28;;;11.70;87.49
51781;BME280;37844;57.126;24.288;2023-04-24T03:32:59;100508.44;;;11.63;88.65
51781;BME280;37844;57.126;24.288;2023-04-24T03:35:43;100517.09;;;11.76;87.27
51781;BME280;37844;57.126;24.288;2023-04-24T03:38:27;100512.78;;;11.76;87.01
51781;BME280;37844;57.126;24.288;2023-04-24T03:41:11;100517.09;;;11.80;87.74
51781;BME280;37844;57.126;24.288;2023-04-24T03:43:55;100511.16;;;11.95;86.58
51781;BME280;37844;57.126;24.288;2023-04-24T03:46:39;100506.88;;;11.99;86.21
51781;BME280;37844;57.126;24.288;2023-04-24T03:49:23;100515.44;;;11.90;86.26
51781;BME280;37844;57.126;24.288;2023-04-24T03:52:07;100526.66;;;11.89;86.90
51781;BME280;37844;57.126;24.288;2023-04-24T03:54:51;100524.09;;;11.94;nan
51781;BME280;37844;57.126;24.288;2023-04-24T03:57:35;100530.16;;;12.09;86.31
51781;BME280;37844;57.126;24.288;2023-04-24T04:00:18;100539.66;;;12.18;85.06
51781;BME280;37844;57.126;24.288;2023-04-24T04:03:03;100545.72;;;12.29;84.53
51781;BME280;37844;57.126;24.288;2023-04-24T04:05:47;100550.03;;;12.34;84.45
51781;BME280;37844;57.126;24.288;2023-04-24T04:08:31;100554.41;;;12.48;84.02
51781;BME280;37844;57.126;24.288;2023-04-24T04:11:15;100550.06;;;12.47;83.54
51781;BME280;37844;57.126;24.288;2023-04-24T04:13:59;100548.38;;;12.51;84.21
51781;BME280;37844;57.126;24.288;2023-04-24T04:16:43;100549.25;;;12.82;82.42
51781;BME280;37844;57.126;24.288;2023-04-24T04:19:27;100549.25;;;12.87;81.33
51781;BME280;37844;57.126;24.288;2023-04-24T04:22:11;100549.25;;;13.02;80.35
51781;BME280;37844;57.126;24.288;2023-04-24T04:24:55;100554.41;;;13.16;79.98
51781;BME280;37844;57.126;24.288;2023-04-24T04:27:39;100557.00;;;13.25;78.78
51781;BME280;37844;57.126;24.288;2023-04-24T04:30:25;100560.47;;;13.41;77.90
51781;BME280;37844;57.126;24.288;2023-04-24T04:33:09;100560.47;;;13.55;77.29
51781;BME280;37844;57.126;24.288;2023-04-24T04:35:54;100566.47;;;13.60;76.61
51781;BME280;37844;57.126;24.288;2023-04-24T04:38:40;100576.81;;;13.63;75.11
51781;BME280;37844;57.126;24.288;2023-04-24T04:41:24;100569.94;;;13.54;75.00
51781;BME280;37844;57.126;24.288;2023-04-24T04:44:08;100574.25;;;13.58;75.06
51781;BME280;37844;57.126;24.288;2023-04-24T04:46:53;100577.69;;;13.70;76.41
51781;BME280;37844;57.126;24.288;2023-04-24T04:49:43;100571.53;;;13.97;74.62
51781;BME280;37844;57.126;24.288;2023-04-24T04:52:27;100573.13;;;14.27;74.82
51781;BME280;37844;57.126;24.288;2023-04-24T04:55:11;100562.66;;;14.46;73.50
51781;BME280;37844;57.126;24.288;2023-04-24T04:57:56;100566.94;;;14.54;72.09
51781;BME280;37844;57.126;24.288;2023-04-24T05:00:41;100568.63;;;14.61;71.26
51781;BME280;37844;57.126;24.288;2023-04-24T05:03:24;100566.69;;;14.96;71.05
51781;BME280;37844;57.126;24.288;2023-04-24T05:06:08;100576.06;;;15.12;69.13
51781;BME280;37844;57.126;24.288;2023-04-24T05:08:52;100583.84;;;15.12;67.74
51781;BME280;37844;57.126;24.288;2023-04-24T05:11:40;100576.88;;;15.17;68.11
51781;BME280;37844;57.126;24.288;2023-04-24T05:14:24;100576.16;;;15.00;68.08
51781;BME280;37844;57.126;24.288;2023-04-24T05:17:08;100579.69;;;14.91;67.82
51781;BME280;37844;57.126;24.288;2023-04-24T05:19:52;100567.53;;;14.96;67.86
51781;BME280;37844;57.126;24.288;2023-04-24T05:22:36;100574.28;;;15.19;67.67
51781;BME280;37844;57.126;24.288;2023-04-24T05:25:20;100572.91;;;15.71;66.18
51781;BME280;37844;57.126;24.288;2023-04-24T05:28:04;100576.06;;;16.00;64.55
51781;BME280;37844;57.126;24.288;2023-04-24T05:30:49;100574.75;;;16.33;63.90
51781;BME280;37844;57.126;24.288;2023-04-24T05:33:33;100574.16;;;16.75;62.32
51781;BME280;37844;57.126;24.288;2023-04-24T05:36:17;100573.75;;;17.04;61.05
51781;BME280;37844;57.126;24.288;2023-04-24T05:39:01;100574.09;;;17.34;60.65
51781;BME280;37844;57.126;24.288;2023-04-24T05:41:45;100573.53;;;17.65;59.91
51781;BME280;37844;57.126;24.288;2023-04-24T05:44:29;100565.22;;;17.92;58.66
51781;BME280;37844;57.126;24.288;2023-04-24T05:47:13;100567.81;;;18.34;57.31
51781;BME280;37844;57.126;24.288;2023-04-24T05:49:57;100569.97;;;18.53;55.91
51781;BME280;37844;57.126;24.288;2023-04-24T05:52:41;100574.13;;;18.63;55.51
51781;BME280;37844;57.126;24.288;2023-04-24T05:55:25;100565.72;;;18.89;55.02
51781;BME280;37844;57.126;24.288;2023-04-24T05:58:09;100566.09;;;19.08;53.91
51781;BME280;37844;57.126;24.288;2023-04-24T06:00:54;100561.88;;;19.37;53.99
51781;BME280;37844;57.126;24.288;2023-04-24T06:03:38;100567.69;;;19.81;53.27
51781;BME280;37844;57.126;24.288;2023-04-24T06:06:23;100565.94;;;20.11;52.65
51781;BME280;37844;57.126;24.288;2023-04-24T06:09:07;100570.69;;;20.58;51.24
51781;BME280;37844;57.126;24.288;2023-04-24T06:11:51;100569.59;;;20.91;51.07
51781;BME280;37844;57.126;24.288;2023-04-24T06:14:38;100566.47;;;21.33;49.60
51781;BME280;37844;57.126;24.288;2023-04-24T06:17:22;100564.69;;;21.34;49.75
51781;BME280;37844;57.126;24.288;2023-04-24T06:20:06;100568.78;;;21.91;49.67
51781;BME280;37844;57.126;24.288;2023-04-24T06:22:51;100563.66;;;22.35;47.87
51781;BME280;37844;57.126;24.288;2023-04-24T06:25:35;100559.56;;;22.05;47.94
51781;BME280;37844;57.126;24.288;2023-04-24T06:28:19;100560.91;;;22.15;47.50
51781;BME280;37844;57.126;24.288;2023-04-24T06:31:03;100569.88;;;22.33;47.12
51781;BME280;37844;57.126;24.288;2023-04-24T06:33:47;100566.22;;;22.37;47.12
51781;BME280;37844;57.126;24.288;2023-04-24T06:36:31;100583.75;;;21.12;48.02
51781;BME280;37844;57.126;24.288;2023-04-24T06:39:18;100578.88;;;20.17;50.08
51781;BME280;37844;57.126;24.288;2023-04-24T06:42:02;100585.38;;;19.71;51.43
51781;BME280;37844;57.126;24.288;2023-04-24T06:44:47;100584.13;;;19.53;52.63
51781;BME280;37844;57.126;24.288;2023-04-24T06:47:30;100587.97;;;19.38;53.42
51781;BME280;37844;57.126;24.288;2023-04-24T06:50:21;100582.34;;;18.85;54.59
51781;BME280;37844;57.126;24.288;2023-04-24T06:53:06;100592.69;;;18.49;56.02
51781;BME280;37844;57.126;24.288;2023-04-24T06:55:49;100587.16;;;18.24;56.61
51781;BME280;37844;57.126;24.288;2023-04-24T06:58:34;100586.09;;;18.33;57.06
51781;BME280;37844;57.126;24.288;2023-04-24T07:01:18;100585.63;;;18.14;57.79
51781;BME280;37844;57.126;24.288;2023-04-24T07:04:02;100589.03;;;18.17;58.62
51781;BME280;37844;57.126;24.288;2023-04-24T07:06:46;100591.00;;;18.06;59.92
51781;BME280;37844;57.126;24.288;2023-04-24T07:09:31;100589.44;;;17.97;59.36
51781;BME280;37844;57.126;24.288;2023-04-24T07:12:15;100599.31;;;17.82;60.57
51781;BME280;37844;57.126;24.288;2023-04-24T07:15:00;100601.91;;;17.83;61.14
51781;BME280;37844;57.126;24.288;2023-04-24T07:17:44;100602.88;;;17.76;61.74
51781;BME280;37844;57.126;24.288;2023-04-24T07:20:29;100603.97;;;17.64;61.52
51781;BME280;37844;57.126;24.288;2023-04-24T07:23:13;100604.88;;;17.62;62.82
51781;BME280;37844;57.126;24.288;2023-04-24T07:25:57;100607.53;;;17.58;63.80
51781;BME280;37844;57.126;24.288;2023-04-24T07:28:41;100606.53;;;17.66;63.14
51781;BME280;37844;57.126;24.288;2023-04-24T07:31:25;100619.53;;;17.67;63.10
51781;BME280;37844;57.126;24.288;2023-04-24T07:34:09;100622.28;;;17.59;62.63
51781;BME280;37844;57.126;24.288;2023-04-24T07:36:53;100617.81;;;17.68;63.33
51781;BME280;37844;57.126;24.288;2023-04-24T07:39:37;100617.84;;;17.65;62.95
51781;BME280;37844;57.126;24.288;2023-04-24T07:42:21;100617.91;;;17.62;63.14
51781;BME280;37844;57.126;24.288;2023-04-24T07:45:05;100628.25;;;17.65;62.80
51781;BME280;37844;57.126;24.288;2023-04-24T07:47:50;100621.19;;;17.73;63.33
51781;BME280;37844;57.126;24.288;2023-04-24T07:50:37;100628.81;;;17.85;63.84
51781;BME280;37844;57.126;24.288;2023-04-24T07:53:21;100630.63;;;17.78;63.77
51781;BME280;37844;57.126;24.288;2023-04-24T07:56:05;100629.09;;;17.68;63.94
51781;BME280;37844;57.126;24.288;2023-04-24T07:58:49;100634.25;;;17.71;63.63
51781;BME280;37844;57.126;24.288;2023-04-24T08:01:33;100636.28;;;17.54;64.42
51781;BME280;37844;57.126;24.288;2023-04-24T08:04:17;100642.28;;;17.57;66.54
51781;BME280;37844;57.126;24.288;2023-04-24T08:07:01;100642.38;;;17.54;65.44
51781;BME280;37844;57.126;24.288;2023-04-24T08:09:45;100643.28;;;17.52;65.03
51781;BME280;37844;57.126;24.288;2023-04-24T08:12:29;100647.78;;;17.42;64.91
51781;BME280;37844;57.126;24.288;2023-04-24T08:15:13;100649.66;;;17.34;65.69
51781;BME280;37844;57.126;24.288;2023-04-24T08:18:00;100635.84;;;17.27;65.42
51781;BME280;37844;57.126;24.288;2023-04-24T08:20:44;100629.88;;;17.22;65.71
51781;BME280;37844;57.126;24.288;2023-04-24T08:23:29;100636.03;;;17.18;67.13
51781;BME280;37844;57.126;24.288;2023-04-24T08:26:13;100642.94;;;17.19;67.71
51781;BME280;37844;57.126;24.288;2023-04-24T08:28:57;100645.69;;;17.11;69.02
51781;BME280;37844;57.126;24.288;2023-04-24T08:31:40;100648.25;;;17.13;69.60
51781;BME280;37844;57.126;24.288;2023-04-24T08:34:25;100643.16;;;17.05;70.10
51781;BME280;37844;57.126;24.288;2023-04-24T08:37:08;100651.75;;;17.10;70.87
51781;BME280;37844;57.126;24.288;2023-04-24T08:39:53;100655.25;;;17.09;71.73
51781;BME280;37844;57.126;24.288;2023-04-24T08:42:37;100654.53;;;17.00;72.34
51781;BME280;37844;57.126;24.288;2023-04-24T08:45:22;100649.53;;;16.87;74.01
51781;BME280;37844;57.126;24.288;2023-04-24T08:48:06;100650.31;;;16.91;74.33
51781;BME280;37844;57.126;24.288;2023-04-24T08:50:51;100646.09;;;16.82;75.83
51781;BME280;37844;57.126;24.288;2023-04-24T08:53:35;100642.78;;;16.71;76.72
51781;BME280;37844;57.126;24.288;2023-04-24T08:56:20;100640.09;;;16.75;77.53
51781;BME280;37844;57.126;24.288;2023-04-24T08:59:05;100647.97;;;16.71;78.43
51781;BME280;37844;57.126;24.288;2023-04-24T09:01:50;100641.16;;;16.62;80.46
51781;BME280;37844;57.126;24.288;2023-04-24T09:04:35;100640.16;;;16.71;83.76
51781;BME280;37844;57.126;24.288;2023-04-24T09:07:20;100645.00;;;16.99;82.23
51781;BME280;37844;57.126;24.288;2023-04-24T09:10:06;100651.88;;;17.04;82.41
51781;BME280;37844;57.126;24.288;2023-04-24T09:12:51;100640.47;;;17.11;81.50
51781;BME280;37844;57.126;24.288;2023-04-24T09:15:36;100646.88;;;17.43;81.63
51781;BME280;37844;57.126;24.288;2023-04-24T09:18:19;100646.72;;;18.04;78.73
51781;BME280;37844;57.126;24.288;2023-04-24T09:21:06;100639.72;;;18.48;74.45
51781;BME280;37844;57.126;24.288;2023-04-24T09:23:57;100639.13;;;18.75;73.68
51781;BME280;37844;57.126;24.288;2023-04-24T09:26:41;100638.13;;;18.81;71.39
51781;BME280;37844;57.126;24.288;2023-04-24T09:29:26;100633.53;;;18.92;70.88
51781;BME280;37844;57.126;24.288;2023-04-24T09:32:19;100627.13;;;19.05;70.39
51781;BME280;37844;57.126;24.288;2023-04-24T09:35:12;100633.44;;;18.95;69.72
51781;BME280;37844;57.126;24.288;2023-04-24T09:37:56;100627.69;;;18.81;69.90
51781;BME280;37844;57.126;24.288;2023-04-24T09:40:40;100625.47;;;19.01;68.45
51781;BME280;37844;57.126;24.288;2023-04-24T09:43:26;100628.44;;;18.86;67.59
51781;BME280;37844;57.126;24.288;2023-04-24T09:46:10;100626.59;;;18.51;67.16
51781;BME280;37844;57.126;24.288;2023-04-24T09:48:54;100626.16;;;18.71;67.75
51781;BME280;37844;57.126;24.288;2023-04-24T09:51:38;100625.19;;;18.76;65.86
51781;BME280;37844;57.126;24.288;2023-04-24T09:54:23;100629.63;;;18.71;66.77
51781;BME280;37844;57.126;24.288;2023-04-24T09:57:08;100631.06;;;18.86;68.26
51781;BME280;37844;57.126;24.288;2023-04-24T09:59:53;100630.19;;;18.85;68.75
51781;BME280;37844;57.126;24.288;2023-04-24T10:02:37;100626.13;;;19.10;67.53
51781;BME280;37844;57.126;24.288;2023-04-24T10:05:28;100622.44;;;19.20;66.30
51781;BME280;37844;57.126;24.288;2023-04-24T10:08:13;100618.91;;;19.21;66.32
51781;BME280;37844;57.126;24.288;2023-04-24T10:10:57;100619.56;;;19.29;66.43
51781;BME280;37844;57.126;24.288;2023-04-24T10:13:41;100619.69;;;19.59;66.01
51781;BME280;37844;57.126;24.288;2023-04-24T10:16:25;100611.25;;;19.82;65.13
51781;BME280;37844;57.126;24.288;2023-04-24T10:19:10;100604.41;;;19.76;64.35
51781;BME280;37844;57.126;24.288;2023-04-24T10:21:56;100604.78;;;19.62;63.60
51781;BME280;37844;57.126;24.288;2023-04-24T10:24:40;100601.88;;;19.75;63.93
51781;BME280;37844;57.126;24.288;2023-04-24T10:27:26;100593.31;;;19.66;64.18
51781;BME280;37844;57.126;24.288;2023-04-24T10:30:11;100590.22;;;19.52;62.88
51781;BME280;37844;57.126;24.288;2023-04-24T10:33:04;100595.06;;;19.33;62.04
51781;BME280;37844;57.126;24.288;2023-04-24T10:36:04;100597.34;;;19.81;62.50
51781;BME280;37844;57.126;24.288;2023-04-24T10:38:47;100593.53;;;20.23;60.82
51781;BME280;37844;57.126;24.288;2023-04-24T10:41:33;100599.63;;;20.81;59.95
51781;BME280;37844;57.126;24.288;2023-04-24T10:44:20;100598.47;;;21.16;59.05
51781;BME280;37844;57.126;24.288;2023-04-24T10:47:05;100610.06;;;21.09;58.40
51781;BME280;37844;57.126;24.288;2023-04-24T10:49:55;100606.03;;;20.99;58.55
51781;BME280;37844;57.126;24.288;2023-04-24T10:52:46;100607.63;;;20.77;58.63
51781;BME280;37844;57.126;24.288;2023-04-24T10:55:40;100609.88;;;20.61;60.06
51781;BME280;37844;57.126;24.288;2023-04-24T10:58:35;100607.94;;;20.94;58.97
51781;BME280;37844;57.126;24.288;2023-04-24T11:01:29;100604.31;;;20.42;59.78
51781;BME280;37844;57.126;24.288;2023-04-24T11:04:13;100605.75;;;20.22;60.45
51781;BME280;37844;57.126;24.288;2023-04-24T11:07:12;100611.16;;;19.85;60.97
51781;BME280;37844;57.126;24.288;2023-04-24T11:09:59;100619.94;;;19.48;63.46
51781;BME280;37844;57.126;24.288;2023-04-24T11:12:45;100615.53;;;19.50;62.51
51781;BME280;37844;57.126;24.288;2023-04-24T11:15:28;100614.75;;;19.12;62.33
51781;BME280;37844;57.126;24.288;2023-04-24T11:18:14;100609.31;;;19.21;62.28
51781;BME280;37844;57.126;24.288;2023-04-24T11:20:58;100609.13;;;18.93;62.17
51781;BME280;37844;57.126;24.288;2023-04-24T11:23:44;100608.53;;;18.82;62.51
51781;BME280;37844;57.126;24.288;2023-04-24T11:26:28;100605.53;;;18.99;63.06
51781;BME280;37844;57.126;24.288;2023-04-24T11:29:16;100600.91;;;18.71;63.01
51781;BME280;37844;57.126;24.288;2023-04-24T11:32:37;100599.41;;;18.61;63.41
51781;BME280;37844;57.126;24.288;2023-04-24T11:37:57;100600.94;;;18.29;63.86
51781;BME280;37844;57.126;24.288;2023-04-24T11:40:42;100609.78;;;18.22;64.58
51781;BME280;37844;57.126;24.288;2023-04-24T11:43:26;100605.69;;;18.10;65.13
51781;BME280;37844;57.126;24.288;2023-04-24T11:46:12;100615.22;;;17.66;66.13
51781;BME280;37844;57.126;24.288;2023-04-24T11:48:56;100608.88;;;17.79;67.36
51781;BME280;37844;57.126;24.288;2023-04-24T11:51:40;100621.91;;;17.79;68.35
51781;BME280;37844;57.126;24.288;2023-04-24T11:54:24;100623.22;;;17.55;68.53
51781;BME280;37844;57.126;24.288;2023-04-24T11:57:08;100625.56;;;17.21;69.80
51781;BME280;37844;57.126;24.288;2023-04-24T11:59:52;100617.22;;;16.99;72.41
51781;BME280;37844;57.126;24.288;2023-04-24T12:02:36;100614.56;;;17.02;73.04
51781;BME280;37844;57.126;24.288;2023-04-24T12:08:04;100609.59;;;16.87;74.70
51781;BME280;37844;57.126;24.288;2023-04-24T12:10:48;100599.31;;;16.78;75.65
51781;BME280;37844;57.126;24.288;2023-04-24T12:13:35;100592.16;;;16.92;76.02
51781;BME280;37844;57.126;24.288;2023-04-24T12:16:19;100593.31;;;16.71;77.33
51781;BME280;37844;57.126;24.288;2023-04-24T12:19:03;100595.03;;;16.72;77.89
51781;BME280;37844;57.126;24.288;2023-04-24T12:22:03;100592.47;;;16.70;78.92
51781;BME280;37844;57.126;24.288;2023-04-24T12:27:40;100594.50;;;16.48;80.70
51781;BME280;37844;57.126;24.288;2023-04-24T12:30:27;100594.31;;;16.61;81.59
51781;BME280;37844;57.126;24.288;2023-04-24T12:33:18;100594.25;;;16.65;80.50
51781;BME280;37844;57.126;24.288;2023-04-24T12:36:03;100584.84;;;16.57;80.60
51781;BME280;37844;57.126;24.288;2023-04-24T12:38:47;100582.84;;;16.75;80.08
51781;BME280;37844;57.126;24.288;2023-04-24T12:41:36;100575.38;;;16.52;82.36
51781;BME280;37844;57.126;24.288;2023-04-24T12:44:20;100573.66;;;16.50;87.58
51781;BME280;37844;57.126;24.288;2023-04-24T12:47:19;100570.16;;;16.51;88.88
51781;BME280;37844;57.126;24.288;2023-04-24T12:50:03;100566.22;;;16.24;90.70
51781;BME280;37844;57.126;24.288;2023-04-24T12:52:53;100566.16;;;16.27;93.02
51781;BME280;37844;57.126;24.288;2023-04-24T12:55:37;100568.59;;;16.39;95.72
51781;BME280;37844;57.126;24.288;2023-04-24T12:58:21;100557.41;;;16.34;96.56
51781;BME280;37844;57.126;24.288;2023-04-24T13:01:05;100556.47;;;16.40;95.75
51781;BME280;37844;57.126;24.288;2023-04-24T13:03:49;100553.59;;;16.58;94.08
51781;BME280;37844;57.126;24.288;2023-04-24T13:06:33;100552.75;;;16.56;92.85
51781;BME280;37844;57.126;24.288;2023-04-24T13:09:17;100552.78;;;16.54;92.88
51781;BME280;37844;57.126;24.288;2023-04-24T13:12:01;100556.84;;;16.72;92.06
51781;BME280;37844;57.126;24.288;2023-04-24T13:14:46;100550.59;;;16.86;91.66
51781;BME280;37844;57.126;24.288;2023-04-24T13:17:30;100543.31;;;16.49;90.20
51781;BME280;37844;57.126;24.288;2023-04-24T13:20:14;100538.63;;;16.72;90.25
51781;BME280;37844;57.126;24.288;2023-04-24T13:22:58;100541.16;;;16.80;90.54
51781;BME280;37844;57.126;24.288;2023-04-24T13:25:42;100530.81;;;16.72;89.06
51781;BME280;37844;57.126;24.288;2023-04-24T13:28:26;100533.47;;;16.71;84.19
51781;BME280;37844;57.126;24.288;2023-04-24T13:31:10;100543.78;;;16.79;85.20
51781;BME280;37844;57.126;24.288;2023-04-24T13:33:54;100534.25;;;16.74;84.44
51781;BME280;37844;57.126;24.288;2023-04-24T13:36:38;100534.50;;;16.59;84.09
51781;BME280;37844;57.126;24.288;2023-04-24T13:39:22;100532.09;;;16.45;83.47
51781;BME280;37844;57.126;24.288;2023-04-24T13:42:06;100531.97;;;16.53;83.01
51781;BME280;37844;57.126;24.288;2023-04-24T13:44:51;100525.97;;;16.49;81.79
51781;BME280;37844;57.126;24.288;2023-04-24T13:47:35;100519.81;;;16.57;81.67
51781;BME280;37844;57.126;24.288;2023-04-24T13:50:20;100530.78;;;16.74;81.40
51781;BME280;37844;57.126;24.288;2023-04-24T13:53:04;100526.19;;;16.93;81.17
51781;BME280;37844;57.126;24.288;2023-04-24T13:55:48;100517.22;;;17.11;79.74
51781;BME280;37844;57.126;24.288;2023-04-24T13:58:32;100516.63;;;16.93;79.43
51781;BME280;37844;57.126;24.288;2023-04-24T14:01:16;100514.94;;;16.89;81.61
51781;BME280;37844;57.126;24.288;2023-04-24T14:04:00;100503.38;;;17.06;81.45
51781;BME280;37844;57.126;24.288;2023-04-24T14:06:44;100504.91;;;17.19;79.52
51781;BME280;37844;57.126;24.288;2023-04-24T14:09:28;100494.63;;;17.10;77.89
51781;BME280;37844;57.126;24.288;2023-04-24T14:12:12;100490.59;;;16.93;79.86
51781;BME280;37844;57.126;24.288;2023-04-24T14:14:57;100490.72;;;16.86;81.16
51781;BME280;37844;57.126;24.288;2023-04-24T14:17:41;100487.88;;;17.00;81.89
51781;BME280;37844;57.126;24.288;2023-04-24T14:20:25;100486.75;;;17.13;81.24